SYAW weather

Awaruwaunau Airport
Awaruwaunau, Upper Takutu-Upper Essequibo, Guyana

Public forecast

Using degrees Celsius for public forecast. Weather courtesy of forecast.io.

METAR (pilot weather report)

Report is more than 6 hours old.

Closest report is Lethem Airport, 56.0 nm (103.6 km) NW. Retrieved 2019/02/12 21:00 UTC (4 days ago):

SYLT 122100Z 10010KT 9999 FEW028 30/23 Q//// NOSIG

TAF (pilot weather forecast)

Forecast is more than 12 hours old.

Closest forecast is Lethem Airport, 56.0 nm (103.6 km) NW. Retrieved 2019/02/09 12:22 UTC (7 days ago):

TAF SYLT 091100Z 0912/0923 05010KT 9999 SCT024